Petersburg, Illinois
Current Conditions -  °F | °C
As of 8:52 PM on Saturday 22 Nov 2014 (Local Time) from KSPI Reporting Station
Light Rain Light Rain  
Wind Chill: 53°   Ceiling: 9000
Heat Index: 53°   Visibility: 10mi
Dew Point: 48°   Wind: 18mph
Humidity: 83%   Direction: 180°S
Pressure: 29.89"   Gusts: NA
Location:  40.01°N, 89.85°W
Report Text: KSPI 230252Z 18016KT 10SM -RA SCT080 OVC090 12/09 A2989 RMK AO2 RAB45 SLP121 P0000 60000 T01170089 58012
Loading
Personal Weather Stations






























Interactive Weather Map New forecast layout! Learn more

10-Day Weather Forecast

Advertisements
Track Severe Weather on mobile